Lady Windridge — WDF3174 — position and weather

sailwx.info

Track history (hours):
 
Tides and Currents Weather Stations Pressure Air Temp Water Temp Dewpoint Dewpoint Depression Visibility Wind Speed Wind Dir Waves Ship Positions

Lady Windridge

Owner: DEEP SEA CHARTERS DBA WINDRIDGE YACHTS, FORT LAUDERDALE, FL. More information available from US FCC via Universal Licensing System and Coast Guard Vessel Documentation Center.

Last reported at 2017-Oct-23 00:30 UTC. Time now 2017-Oct-23 00:33 UTC.
Position N 42°21' W 071°03'.

Length 54 m; draft 2.9 m.

Type: Passenger vessel. MMSI: 338079044.

Date/timePositionNaut miles runAvg speedWind from/ knotsBaromVisibWave heightAir tempDewpointWater temp
2017-Oct-23 00:30N 42°21' W 071°03'0 0.0
2017-Oct-23 00:00N 42°21' W 071°03'0 0.0
2017-Oct-22 23:30N 42°21' W 071°03'0 0.0
2017-Oct-22 23:00N 42°21' W 071°03'0 0.0
2017-Oct-22 22:31N 42°21' W 071°03'0 0.0
2017-Oct-22 22:01N 42°21' W 071°03'0 0.0
2017-Oct-22 21:28N 42°21' W 071°03'0 0.0
2017-Oct-22 21:01N 42°21' W 071°03'0 0.0
2017-Oct-22 20:30N 42°21' W 071°03'0 0.0
2017-Oct-22 20:00N 42°21' W 071°03'0 0.0
2017-Oct-22 19:27N 42°21' W 071°03'0 0.0
2017-Oct-22 19:00N 42°21' W 071°03'2 4.7
2017-Oct-22 18:29N 42°20' W 071°00'1 2.5
2017-Oct-22 18:01N 42°21' W 071°01'2 4.1
2017-Oct-22 17:31N 42°22' W 071°03'1 1.8
2017-Oct-22 17:00N 42°21' W 071°03'0 0.1
2017-Oct-22 16:26N 42°21' W 071°03'0 0.0
2017-Oct-22 15:57N 42°21' W 071°03'0 0.0
2017-Oct-22 15:15N 42°21' W 071°03'0 0.0
2017-Oct-22 15:00N 42°21' W 071°03'0 0.0
2017-Oct-22 14:27N 42°21' W 071°03'0 0.0
2017-Oct-22 13:48N 42°21' W 071°03'0 0.0
2017-Oct-22 13:30N 42°21' W 071°03'0 0.0
2017-Oct-22 13:01N 42°21' W 071°03'0 0.0
2017-Oct-22 12:30N 42°21' W 071°03'0 0.0
2017-Oct-22 12:00N 42°21' W 071°03'0 0.0
2017-Oct-22 11:31N 42°21' W 071°03'0 0.0
2017-Oct-22 11:00N 42°21' W 071°03'0 0.0
2017-Oct-22 10:31N 42°21' W 071°03'0 0.0
2017-Oct-22 10:00N 42°21' W 071°03'0 0.0
2017-Oct-22 09:31N 42°21' W 071°03'0 0.0
2017-Oct-22 09:00N 42°21' W 071°03'0 0.0
2017-Oct-22 08:30N 42°21' W 071°03'0 0.0
2017-Oct-22 08:01N 42°21' W 071°03'0 0.0
2017-Oct-22 07:30N 42°21' W 071°03'0 0.0
2017-Oct-22 07:00N 42°21' W 071°03'0 0.0
2017-Oct-22 06:30N 42°21' W 071°03'0 0.0
2017-Oct-22 06:00N 42°21' W 071°03'0 0.0
2017-Oct-22 05:30N 42°21' W 071°03'0 0.0
2017-Oct-22 05:00N 42°21' W 071°03'0 0.0
2017-Oct-22 04:30N 42°21' W 071°03'0 0.0
2017-Oct-22 04:00N 42°21' W 071°03'0 0.0
2017-Oct-22 03:30N 42°21' W 071°03'0 0.0
2017-Oct-22 03:00N 42°21' W 071°03'1 2.7
2017-Oct-22 02:30N 42°21' W 071°01'1 1.9
2017-Oct-22 02:00N 42°20' W 071°00'2 3.7
2017-Oct-22 01:30N 42°21' W 071°02'1 2.4
2017-Oct-22 01:00N 42°22' W 071°03'1 1.1
2017-Oct-22 00:30N 42°23' W 071°03'2 3.4
2017-Oct-22 00:01N 42°21' W 071°03'0 0.0
2017-Oct-21 23:30N 42°21' W 071°03'0 0.0
2017-Oct-21 23:01N 42°21' W 071°03'0 0.0
2017-Oct-21 22:30N 42°21' W 071°03'0 0.2
2017-Oct-21 22:01N 42°21' W 071°03'0 0.2
2017-Oct-21 21:30N 42°21' W 071°03'0 0.1
2017-Oct-21 21:00N 42°21' W 071°03'0 0.1
2017-Oct-21 20:31N 42°21' W 071°03'0 0.0
2017-Oct-21 20:00N 42°21' W 071°03'0 0.0
2017-Oct-21 19:30N 42°21' W 071°03'0 0.0
2017-Oct-21 18:43N 42°21' W 071°03'0 0.0
2017-Oct-21 18:26N 42°21' W 071°03'0 0.0
2017-Oct-21 18:00N 42°21' W 071°03'0 0.0
2017-Oct-21 17:28N 42°21' W 071°03'0 0.0
2017-Oct-21 15:49N 42°21' W 071°03'0 0.0
2017-Oct-21 15:13N 42°21' W 071°03'0 0.0
2017-Oct-21 14:54N 42°21' W 071°03'0 0.0
2017-Oct-21 14:29N 42°21' W 071°03'0 0.0
2017-Oct-21 13:30N 42°21' W 071°03'0 0.2
2017-Oct-21 13:00N 42°21' W 071°03'0 0.2
2017-Oct-21 12:31N 42°21' W 071°03'0 0.0
2017-Oct-21 12:00N 42°21' W 071°03'0 0.0
2017-Oct-21 11:30N 42°21' W 071°03'0 0.0
2017-Oct-21 11:00N 42°21' W 071°03'0 0.0
2017-Oct-21 10:31N 42°21' W 071°03'0 0.0
2017-Oct-21 10:01N 42°21' W 071°03'0 0.0
2017-Oct-21 09:30N 42°21' W 071°03'0 0.0
2017-Oct-21 09:00N 42°21' W 071°03'0 0.0
2017-Oct-21 08:30N 42°21' W 071°03'0 0.0
2017-Oct-21 07:59N 42°21' W 071°03'0 0.0
2017-Oct-21 07:15N 42°21' W 071°03'0 0.0
2017-Oct-21 06:59N 42°21' W 071°03'0 0.0
2017-Oct-21 06:30N 42°21' W 071°03'0 0.0
2017-Oct-21 05:57N 42°21' W 071°03'0 0.0
2017-Oct-21 05:29N 42°21' W 071°03'0 0.0
2017-Oct-21 05:00N 42°21' W 071°03'0 0.0
2017-Oct-21 04:29N 42°21' W 071°03'0 0.0
2017-Oct-21 04:01N 42°21' W 071°03'0 0.0
2017-Oct-21 03:30N 42°21' W 071°03'0 0.0
2017-Oct-21 02:56N 42°21' W 071°03'0 0.0
2017-Oct-21 02:30N 42°21' W 071°03'0 0.0
2017-Oct-21 02:00N 42°21' W 071°03'0 0.0
2017-Oct-21 01:31N 42°21' W 071°03'0 0.0
2017-Oct-21 00:59N 42°21' W 071°03'0 0.0
2017-Oct-21 00:30N 42°21' W 071°03'0 0.0
2017-Oct-21 00:00N 42°21' W 071°03'0 0.0
2017-Oct-20 23:31N 42°21' W 071°03'0 0.0
2017-Oct-20 23:00N 42°21' W 071°03'0 0.0
2017-Oct-20 22:30N 42°21' W 071°03'0 0.0
2017-Oct-20 22:00N 42°21' W 071°03'0 0.0
2017-Oct-20 21:31N 42°21' W 071°03'0 0.2
2017-Oct-20 21:00N 42°21' W 071°03'0 0.2
2017-Oct-20 20:30N 42°21' W 071°03'0 0.3
2017-Oct-20 20:00N 42°21' W 071°03'0 0.2
2017-Oct-20 19:29N 42°21' W 071°03'0 0.0
2017-Oct-20 13:47N 42°21' W 071°03'0 0.0
2017-Oct-20 13:27N 42°21' W 071°03'0 0.3
2017-Oct-20 13:01N 42°21' W 071°03'0 0.2
2017-Oct-20 12:31N 42°21' W 071°03'0 0.0
2017-Oct-20 12:00N 42°21' W 071°03'0 0.0
2017-Oct-20 11:30N 42°21' W 071°03'0 0.0
2017-Oct-20 11:00N 42°21' W 071°03'0 0.0
2017-Oct-20 10:30N 42°21' W 071°03'0 0.0
2017-Oct-20 10:01N 42°21' W 071°03'0 0.2
2017-Oct-20 09:30N 42°21' W 071°03'0 0.2
2017-Oct-20 09:01N 42°21' W 071°03'0 0.0
2017-Oct-20 08:30N 42°21' W 071°03'0 0.0
2017-Oct-20 08:00N 42°21' W 071°03'0 0.0
2017-Oct-20 07:31N 42°21' W 071°03'0 0.0
2017-Oct-20 07:00N 42°21' W 071°03'0 0.0
2017-Oct-20 06:30N 42°21' W 071°03'0 0.0
2017-Oct-20 06:01N 42°21' W 071°03'0 0.0
2017-Oct-20 05:30N 42°21' W 071°03'0 0.0
2017-Oct-20 05:00N 42°21' W 071°03'0 0.0
2017-Oct-20 04:30N 42°21' W 071°03'0 0.0
2017-Oct-20 04:00N 42°21' W 071°03'0 0.0
2017-Oct-20 03:30N 42°21' W 071°03'0 0.0
2017-Oct-20 03:01N 42°21' W 071°03'0 0.0
2017-Oct-20 02:31N 42°21' W 071°03'0 0.0
2017-Oct-20 02:01N 42°21' W 071°03'0 0.0
2017-Oct-20 01:30N 42°21' W 071°03'0 0.0
2017-Oct-20 01:00N 42°21' W 071°03'0 0.0
2017-Oct-20 00:31N 42°21' W 071°03'0 0.0
2017-Oct-20 00:01N 42°21' W 071°03'0 0.0
2017-Oct-19 23:31N 42°21' W 071°03'0 0.0
2017-Oct-19 23:00N 42°21' W 071°03'0 0.0
2017-Oct-19 22:31N 42°21' W 071°03'0 0.0
2017-Oct-19 22:00N 42°21' W 071°03'0 0.0
2017-Oct-19 21:30N 42°21' W 071°03'0 0.2
2017-Oct-19 21:01N 42°21' W 071°03'0 0.2
2017-Oct-19 20:30N 42°21' W 071°03'0 0.3
2017-Oct-19 20:01N 42°21' W 071°03'0 0.3
2017-Oct-19 19:30N 42°21' W 071°03'0 0.0
2017-Oct-19 19:00N 42°21' W 071°03'0 0.0
2017-Oct-19 18:31N 42°21' W 071°03'0 0.0
2017-Oct-19 18:01N 42°21' W 071°03'0 0.2
2017-Oct-19 17:30N 42°21' W 071°03'0 0.2
2017-Oct-19 17:01N 42°21' W 071°03'0 0.0
2017-Oct-19 16:30N 42°21' W 071°03'0 0.0
2017-Oct-19 16:00N 42°21' W 071°03'0 0.0
2017-Oct-19 15:30N 42°21' W 071°03'0 0.0
2017-Oct-19 15:00N 42°21' W 071°03'0 0.0
2017-Oct-19 14:30N 42°21' W 071°03'0 0.0
2017-Oct-19 14:00N 42°21' W 071°03'0 0.0
2017-Oct-19 13:31N 42°21' W 071°03'0 0.0
2017-Oct-19 13:00N 42°21' W 071°03'0 0.0
2017-Oct-19 12:31N 42°21' W 071°03'0 0.0
2017-Oct-19 12:01N 42°21' W 071°03'0 0.0
2017-Oct-19 11:31N 42°21' W 071°03'0 0.0
2017-Oct-19 11:00N 42°21' W 071°03'0 0.0
2017-Oct-19 10:31N 42°21' W 071°03'0 0.0
2017-Oct-19 10:00N 42°21' W 071°03'0 0.2
2017-Oct-19 09:30N 42°21' W 071°03'0 0.2
2017-Oct-19 09:01N 42°21' W 071°03'0 0.0
2017-Oct-19 08:30N 42°21' W 071°03'0 0.0
2017-Oct-19 08:00N 42°21' W 071°03'0 0.0
2017-Oct-19 07:30N 42°21' W 071°03'0 0.0
2017-Oct-19 07:00N 42°21' W 071°03'0 0.3
2017-Oct-19 06:30N 42°21' W 071°03'0 0.3
2017-Oct-19 06:01N 42°21' W 071°03'0 0.2
2017-Oct-19 05:30N 42°21' W 071°03'0 0.2
2017-Oct-19 05:00N 42°21' W 071°03'0 0.0
2017-Oct-19 04:30N 42°21' W 071°03'0 0.0
2017-Oct-19 04:00N 42°21' W 071°03'0 0.0
2017-Oct-19 03:30N 42°21' W 071°03'0 0.0
2017-Oct-19 03:00N 42°21' W 071°03'0 0.0
2017-Oct-19 02:30N 42°21' W 071°03'0 0.0
2017-Oct-19 02:00N 42°21' W 071°03'1 1.6
2017-Oct-19 01:30N 42°21' W 071°02'1 2.2
2017-Oct-19 01:01N 42°21' W 071°01'2 3.5
2017-Oct-19 00:31N 42°22' W 071°03'1 2.4
2017-Oct-19 00:01N 42°23' W 071°03'0 0.9
2017-Oct-18 23:31N 42°22' W 071°03'1 2.2
2017-Oct-18 23:00N 42°21' W 071°03'0 0.0
2017-Oct-18 22:30N 42°21' W 071°03'0 0.0
2017-Oct-18 22:00N 42°21' W 071°03'0 0.0
2017-Oct-18 21:30N 42°21' W 071°03'0 0.2
2017-Oct-18 21:00N 42°21' W 071°03'0 0.2
2017-Oct-18 20:30N 42°21' W 071°03'0 0.0
2017-Oct-18 20:00N 42°21' W 071°03'0 0.0
2017-Oct-18 19:30N 42°21' W 071°03'0 0.0
2017-Oct-18 19:00N 42°21' W 071°03'0 0.0
2017-Oct-18 18:30N 42°21' W 071°03'0 0.0
2017-Oct-18 18:00N 42°21' W 071°03'0 0.0
2017-Oct-18 17:31N 42°21' W 071°03'0 0.0
2017-Oct-18 17:00N 42°21' W 071°03'0 0.0
2017-Oct-18 16:31N 42°21' W 071°03'0 0.0
2017-Oct-18 16:00N 42°21' W 071°03'0 0.0
2017-Oct-18 15:30N 42°21' W 071°03'0 0.0
2017-Oct-18 15:00N 42°21' W 071°03'0 0.0
2017-Oct-18 14:00N 42°21' W 071°03'0 0.0
2017-Oct-18 13:30N 42°21' W 071°03'0 0.2
2017-Oct-18 13:00N 42°21' W 071°03'0 0.2
2017-Oct-18 12:30N 42°21' W 071°03'0 0.0
2017-Oct-18 12:01N 42°21' W 071°03'0 0.0
2017-Oct-18 11:31N 42°21' W 071°03'0 0.0
2017-Oct-18 11:00N 42°21' W 071°03'0 0.0
2017-Oct-18 10:31N 42°21' W 071°03'0 0.0
2017-Oct-18 10:01N 42°21' W 071°03'0 0.0
2017-Oct-18 09:30N 42°21' W 071°03'0 0.0
2017-Oct-18 09:00N 42°21' W 071°03'0 0.0
2017-Oct-18 08:31N 42°21' W 071°03'0 0.0
2017-Oct-18 08:01N 42°21' W 071°03'0 0.0
2017-Oct-18 07:30N 42°21' W 071°03'0 0.0
2017-Oct-18 07:01N 42°21' W 071°03'0 0.0
2017-Oct-18 06:30N 42°21' W 071°03'0 0.0
2017-Oct-18 06:00N 42°21' W 071°03'0 0.0
2017-Oct-18 05:30N 42°21' W 071°03'0 0.0
2017-Oct-18 05:00N 42°21' W 071°03'0 0.0
2017-Oct-18 04:30N 42°21' W 071°03'0 0.0
2017-Oct-18 04:00N 42°21' W 071°03'0 0.0
2017-Oct-18 03:31N 42°21' W 071°03'0 0.0
2017-Oct-18 03:00N 42°21' W 071°03'0 0.0
2017-Oct-18 02:30N 42°21' W 071°03'0 0.0
2017-Oct-18 02:01N 42°21' W 071°03'0 0.1
2017-Oct-18 01:30N 42°21' W 071°03'0 0.1
2017-Oct-18 01:01N 42°21' W 071°03'0 0.0
2017-Oct-18 00:30N 42°21' W 071°03'0 0.0
2017-Oct-18 00:00N 42°21' W 071°03'0 0.0
2017-Oct-17 23:30N 42°21' W 071°03'0 0.0
2017-Oct-17 23:00N 42°21' W 071°03'0 0.2
2017-Oct-17 22:31N 42°21' W 071°03'0 0.4
2017-Oct-17 22:00N 42°21' W 071°03'1 1.2
2017-Oct-17 21:30N 42°22' W 071°03'0 0.6
2017-Oct-17 21:01N 42°22' W 071°03'1 1.8
2017-Oct-17 20:31N 42°21' W 071°03'0 0.1
2017-Oct-17 20:01N 42°21' W 071°03'0 0.2
2017-Oct-17 19:30N 42°21' W 071°03'0 0.4
2017-Oct-17 19:01N 42°21' W 071°03'0 0.0
2017-Oct-17 18:31N 42°21' W 071°03'0 0.0
2017-Oct-17 18:00N 42°21' W 071°03'0 0.0
2017-Oct-17 17:31N 42°21' W 071°03'0 0.0
2017-Oct-17 17:00N 42°21' W 071°03'0 0.0
2017-Oct-17 16:30N 42°21' W 071°03'0 0.0
2017-Oct-17 16:00N 42°21' W 071°03'0 0.0
2017-Oct-17 15:30N 42°21' W 071°03'0 0.0
2017-Oct-17 15:00N 42°21' W 071°03'0 0.0
2017-Oct-17 14:30N 42°21' W 071°03'0 0.0
2017-Oct-17 14:00N 42°21' W 071°03'0 0.0
2017-Oct-17 13:30N 42°21' W 071°03'0 0.0
2017-Oct-17 13:00N 42°21' W 071°03'0 0.0
2017-Oct-17 12:30N 42°21' W 071°03'0 0.0
2017-Oct-17 12:00N 42°21' W 071°03'0 0.0
2017-Oct-17 11:31N 42°21' W 071°03'0 0.0
2017-Oct-17 11:01N 42°21' W 071°03'0 0.0
2017-Oct-17 10:30N 42°21' W 071°03'0 0.0
2017-Oct-17 10:01N 42°21' W 071°03'0 0.0
2017-Oct-17 09:31N 42°21' W 071°03'0 0.0
2017-Oct-17 09:00N 42°21' W 071°03'0 0.0
2017-Oct-17 08:30N 42°21' W 071°03'0 0.0
2017-Oct-17 08:00N 42°21' W 071°03'0 0.0
2017-Oct-17 07:31N 42°21' W 071°03'0 0.0
2017-Oct-17 07:00N 42°21' W 071°03'0 0.0
2017-Oct-17 06:30N 42°21' W 071°03'0 0.0
2017-Oct-17 06:00N 42°21' W 071°03'0 0.2
2017-Oct-17 05:30N 42°21' W 071°03'0 0.2
2017-Oct-17 05:01N 42°21' W 071°03'0 0.0
2017-Oct-17 04:30N 42°21' W 071°03'0 0.0
2017-Oct-17 04:00N 42°21' W 071°03'0 0.0
2017-Oct-17 03:30N 42°21' W 071°03'0 0.0
2017-Oct-17 03:01N 42°21' W 071°03'0 0.0
2017-Oct-17 02:30N 42°21' W 071°03'0 0.0
2017-Oct-17 02:00N 42°21' W 071°03'0 0.2
2017-Oct-17 01:30N 42°21' W 071°03'0 0.2
2017-Oct-17 01:00N 42°21' W 071°03'0 0.0
2017-Oct-17 00:31N 42°21' W 071°03'0 0.0
2017-Oct-17 00:00N 42°21' W 071°03'0 0.0
2017-Oct-16 23:31N 42°21' W 071°03'0 0.0
2017-Oct-16 23:00N 42°21' W 071°03'0 0.0
2017-Oct-16 22:30N 42°21' W 071°03'0 0.0
2017-Oct-16 22:01N 42°21' W 071°03'0 0.2
2017-Oct-16 21:31N 42°21' W 071°03'1 1.7
2017-Oct-16 21:00N 42°22' W 071°03'1 1.5
2017-Oct-16 20:30N 42°22' W 071°03'0 0.5
2017-Oct-16 20:00N 42°21' W 071°03'0 0.3
2017-Oct-16 19:30N 42°21' W 071°03'0 0.0
2017-Oct-16 19:00N 42°21' W 071°03'0 0.0
2017-Oct-16 18:30N 42°21' W 071°03'0 0.0
2017-Oct-16 18:00N 42°21' W 071°03'0 0.0
2017-Oct-16 17:31N 42°21' W 071°03'0 0.0
2017-Oct-16 17:00N 42°21' W 071°03'0 0.0
2017-Oct-16 16:30N 42°21' W 071°03'0 0.0
2017-Oct-16 16:00N 42°21' W 071°03'0 0.0
2017-Oct-16 15:30N 42°21' W 071°03'0 0.0
2017-Oct-16 15:00N 42°21' W 071°03'0 0.0
2017-Oct-16 14:00N 42°21' W 071°03'0 0.0
2017-Oct-16 13:30N 42°21' W 071°03'0 0.0
2017-Oct-16 13:00N 42°21' W 071°03'0 0.0
2017-Oct-16 12:30N 42°21' W 071°03'0 0.0
2017-Oct-16 12:01N 42°21' W 071°03'0 0.0
2017-Oct-16 11:30N 42°21' W 071°03'0 0.0
2017-Oct-16 11:01N 42°21' W 071°03'0 0.0
2017-Oct-16 10:30N 42°21' W 071°03'0 0.2
2017-Oct-16 10:00N 42°21' W 071°03'0 0.2
2017-Oct-16 09:30N 42°21' W 071°03'0 0.0
2017-Oct-16 09:00N 42°21' W 071°03'0 0.0
2017-Oct-16 08:30N 42°21' W 071°03'0 0.0
2017-Oct-16 08:01N 42°21' W 071°03'0 0.0
2017-Oct-16 07:30N 42°21' W 071°03'0 0.0
2017-Oct-16 07:00N 42°21' W 071°03'0 0.0
2017-Oct-16 06:30N 42°21' W 071°03'0 0.0
2017-Oct-16 06:00N 42°21' W 071°03'0 0.2
2017-Oct-16 05:30N 42°21' W 071°03'0 0.2
2017-Oct-16 05:01N 42°21' W 071°03'0 0.0
2017-Oct-16 04:30N 42°21' W 071°03'0 0.0
2017-Oct-16 04:00N 42°21' W 071°03'0 0.0
2017-Oct-16 03:30N 42°21' W 071°03'0 0.0
2017-Oct-16 03:00N 42°21' W 071°03'0 0.0
2017-Oct-16 02:31N 42°21' W 071°03'0 0.0
2017-Oct-16 02:00N 42°21' W 071°03'0 0.2
2017-Oct-16 01:30N 42°21' W 071°03'0 0.2
2017-Oct-16 01:00N 42°21' W 071°03'0 0.0
2017-Oct-16 00:31N 42°21' W 071°03'0 0.0
2017-Oct-16 00:00N 42°21' W 071°03'0 0.0
2017-Oct-15 23:31N 42°21' W 071°03'0 0.0
2017-Oct-15 23:00N 42°21' W 071°03'0 0.0
2017-Oct-15 22:31N 42°21' W 071°03'0 0.0
2017-Oct-15 22:00N 42°21' W 071°03'0 0.0
2017-Oct-15 21:31N 42°21' W 071°03'0 0.0
2017-Oct-15 21:00N 42°21' W 071°03'0 0.0
2017-Oct-15 20:30N 42°21' W 071°03'0 0.0
2017-Oct-15 20:01N 42°21' W 071°03'0 0.0
2017-Oct-15 19:31N 42°21' W 071°03'0 0.0
2017-Oct-15 19:01N 42°21' W 071°03'0 0.0
2017-Oct-15 18:30N 42°21' W 071°03'0 0.0
2017-Oct-15 18:00N 42°21' W 071°03'0 0.1
2017-Oct-15 17:30N 42°21' W 071°03'0 0.1
2017-Oct-15 17:00N 42°21' W 071°03'0 0.0
2017-Oct-15 16:30N 42°21' W 071°03'0 0.0
2017-Oct-15 16:00N 42°21' W 071°03'0 0.0
2017-Oct-15 15:30N 42°21' W 071°03'0 0.0
2017-Oct-15 15:00N 42°21' W 071°03'0 0.0
2017-Oct-15 14:01N 42°21' W 071°03'0 0.0
2017-Oct-15 13:30N 42°21' W 071°03'0 0.0
2017-Oct-15 13:01N 42°21' W 071°03'0 0.0
2017-Oct-15 12:30N 42°21' W 071°03'0 0.0
2017-Oct-15 12:00N 42°21' W 071°03'0 0.0
2017-Oct-15 11:30N 42°21' W 071°03'0 0.0
2017-Oct-15 11:00N 42°21' W 071°03'0 0.0
2017-Oct-15 10:30N 42°21' W 071°03'0 0.0
2017-Oct-15 10:01N 42°21' W 071°03'0 0.0
2017-Oct-15 09:30N 42°21' W 071°03'0 0.0
2017-Oct-15 09:00N 42°21' W 071°03'0 0.0
2017-Oct-15 08:30N 42°21' W 071°03'0 0.0
2017-Oct-15 08:00N 42°21' W 071°03'0 0.0
2017-Oct-15 07:30N 42°21' W 071°03'0 0.0
2017-Oct-15 07:01N 42°21' W 071°03'0 0.0
2017-Oct-15 06:30N 42°21' W 071°03'0 0.0
2017-Oct-15 06:01N 42°21' W 071°03'0 0.2
2017-Oct-15 05:30N 42°21' W 071°03'0 0.2
2017-Oct-15 05:00N 42°21' W 071°03'0 0.0
2017-Oct-15 04:30N 42°21' W 071°03'0 0.0
2017-Oct-15 04:00N 42°21' W 071°03'0 0.0
2017-Oct-15 03:30N 42°21' W 071°03'0 0.0
2017-Oct-15 03:01N 42°21' W 071°03'0 0.0
2017-Oct-15 02:30N 42°21' W 071°03'0 0.0
2017-Oct-15 02:00N 42°21' W 071°03'1 2.2
2017-Oct-15 01:30N 42°21' W 071°02'2 3.6
2017-Oct-15 01:00N 42°20' W 070°60'1 2.6
2017-Oct-15 00:30N 42°21' W 071°01'2 4.0
2017-Oct-15 00:01N 42°22' W 071°03'1 1.2
2017-Oct-14 23:31N 42°23' W 071°03'1 2.7
2017-Oct-14 23:00N 42°21' W 071°03'0 0.0
2017-Oct-14 22:30N 42°21' W 071°03'0 0.0
2017-Oct-14 22:00N 42°21' W 071°03'0 0.1
2017-Oct-14 21:30N 42°21' W 071°03'0 0.1
2017-Oct-14 21:00N 42°21' W 071°03'0 0.0
2017-Oct-14 20:31N 42°21' W 071°03'0 0.0
2017-Oct-14 20:01N 42°21' W 071°03'1 1.1
2017-Oct-14 19:31N 42°22' W 071°03'2 4.0
2017-Oct-14 19:00N 42°20' W 071°00'0 0.7
2017-Oct-14 18:30N 42°21' W 071°01'2 3.3
2017-Oct-14 18:00N 42°21' W 071°03'0 0.0
2017-Oct-14 17:30N 42°21' W 071°03'0 0.0
2017-Oct-14 17:00N 42°21' W 071°03'0 0.0
2017-Oct-14 16:30N 42°21' W 071°03'0 0.0
2017-Oct-14 16:00N 42°21' W 071°03'0 0.0
2017-Oct-14 15:30N 42°21' W 071°03'0 0.0
2017-Oct-14 15:01N 42°21' W 071°03'0 0.0
2017-Oct-14 14:30N 42°21' W 071°03'0 0.0
2017-Oct-14 14:00N 42°21' W 071°03'0 0.0
2017-Oct-14 13:30N 42°21' W 071°03'0 0.0
2017-Oct-14 13:00N 42°21' W 071°03'0 0.0
2017-Oct-14 12:30N 42°21' W 071°03'0 0.0
2017-Oct-14 12:00N 42°21' W 071°03'0 0.0
2017-Oct-14 11:30N 42°21' W 071°03'0 0.0
2017-Oct-14 11:00N 42°21' W 071°03'0 0.0
2017-Oct-14 10:30N 42°21' W 071°03'0 0.0
2017-Oct-14 10:00N 42°21' W 071°03'0 0.0
2017-Oct-14 09:30N 42°21' W 071°03'0 0.0
2017-Oct-14 09:01N 42°21' W 071°03'0 0.0
2017-Oct-14 08:30N 42°21' W 071°03'0 0.0
2017-Oct-14 08:01N 42°21' W 071°03'0 0.0
2017-Oct-14 07:30N 42°21' W 071°03'0 0.0
2017-Oct-14 07:00N 42°21' W 071°03'0 0.0
2017-Oct-14 06:30N 42°21' W 071°03'0 0.0
2017-Oct-14 06:00N 42°21' W 071°03'0 0.0
2017-Oct-14 05:31N 42°21' W 071°03'0 0.0
2017-Oct-14 05:00N 42°21' W 071°03'0 0.0
2017-Oct-14 04:30N 42°21' W 071°03'0 0.0
2017-Oct-14 04:00N 42°21' W 071°03'0 0.0
2017-Oct-14 03:30N 42°21' W 071°03'0 0.0
2017-Oct-14 03:00N 42°21' W 071°03'0 0.0
2017-Oct-14 02:30N 42°21' W 071°03'0 0.0
2017-Oct-14 02:01N 42°21' W 071°03'2 2.9
2017-Oct-14 01:28N 42°23' W 071°03'2 3.4
2017-Oct-14 00:58N 42°21' W 071°02'2 3.7
2017-Oct-14 00:28N 42°20' W 070°60'1 3.2
2017-Oct-14 00:00N 42°21' W 071°01'2 3.6
2017-Oct-13 23:30N 42°22' W 071°03'1 1.8
2017-Oct-13 23:00N 42°21' W 071°03'0 0.0
2017-Oct-13 22:30N 42°21' W 071°03'0 0.0
2017-Oct-13 22:00N 42°21' W 071°03'0 0.2
2017-Oct-13 21:30N 42°21' W 071°03'0 0.2
2017-Oct-13 21:00N 42°21' W 071°03'0 0.2
2017-Oct-13 20:30N 42°21' W 071°03'0 0.3
2017-Oct-13 20:01N 42°21' W 071°03'0 0.0
2017-Oct-13 19:30N 42°21' W 071°03'0 0.0
2017-Oct-13 19:00N 42°21' W 071°03'0 0.0
2017-Oct-13 18:31N 42°21' W 071°03'0 0.0
2017-Oct-13 18:01N 42°21' W 071°03'0 0.0
2017-Oct-13 17:30N 42°21' W 071°03'0 0.0
2017-Oct-13 17:00N 42°21' W 071°03'0 0.0
2017-Oct-13 16:30N 42°21' W 071°03'0 0.0
2017-Oct-13 16:01N 42°21' W 071°03'0 0.0
2017-Oct-13 15:30N 42°21' W 071°03'0 0.0
2017-Oct-13 15:00N 42°21' W 071°03'0 0.0
2017-Oct-13 14:30N 42°21' W 071°03'0 0.0
2017-Oct-13 14:00N 42°21' W 071°03'0 0.2
2017-Oct-13 13:30N 42°21' W 071°03'0 0.2
2017-Oct-13 13:00N 42°21' W 071°03'0 0.0
2017-Oct-13 12:31N 42°21' W 071°03'0 0.0
2017-Oct-13 12:01N 42°21' W 071°03'0 0.0
2017-Oct-13 11:31N 42°21' W 071°03'0 0.0
2017-Oct-13 11:01N 42°21' W 071°03'0 0.0
2017-Oct-13 10:30N 42°21' W 071°03'0 0.0
2017-Oct-13 10:01N 42°21' W 071°03'0 0.0
2017-Oct-13 09:30N 42°21' W 071°03'0 0.0
2017-Oct-13 09:00N 42°21' W 071°03'0 0.0
2017-Oct-13 08:30N 42°21' W 071°03'0 0.0
2017-Oct-13 08:00N 42°21' W 071°03'0 0.0
2017-Oct-13 07:30N 42°21' W 071°03'0 0.3
2017-Oct-13 07:00N 42°21' W 071°03'0 0.3
2017-Oct-13 06:30N 42°21' W 071°03'0 0.0
2017-Oct-13 06:00N 42°21' W 071°03'0 0.0
2017-Oct-13 05:30N 42°21' W 071°03'0 0.0
2017-Oct-13 05:00N 42°21' W 071°03'0 0.0
2017-Oct-13 04:30N 42°21' W 071°03'0 0.0
2017-Oct-13 04:00N 42°21' W 071°03'0 0.0
2017-Oct-13 03:30N 42°21' W 071°03'0 0.0
2017-Oct-13 03:00N 42°21' W 071°03'0 0.0
2017-Oct-13 02:30N 42°21' W 071°03'0 0.0
2017-Oct-13 02:01N 42°21' W 071°03'0 0.0
2017-Oct-13 01:31N 42°21' W 071°03'0 0.0
2017-Oct-13 01:00N 42°21' W 071°03'0 0.0
2017-Oct-13 00:31N 42°21' W 071°03'  
Track history (hours):
 
Tides and Currents Weather Stations Pressure Air Temp Water Temp Dewpoint Dewpoint Depression Visibility Wind Speed Wind Dir Waves Ship Positions

Lady Windridge

Owner: DEEP SEA CHARTERS DBA WINDRIDGE YACHTS, FORT LAUDERDALE, FL. More information available from US FCC via Universal Licensing System and Coast Guard Vessel Documentation Center.

Last reported at 2017-Oct-23 00:30 UTC. Time now 2017-Oct-23 00:33 UTC.
Position N 42°21' W 071°03'.

Length 54 m; draft 2.9 m.

Type: Passenger vessel. MMSI: 338079044.

Date/timePositionNaut miles runAvg speedWind from/ knotsBaromVisibWave heightAir tempDewpointWater temp
2017-Oct-23 00:30N 42°21' W 071°03'0 0.0
2017-Oct-23 00:00N 42°21' W 071°03'0 0.0
2017-Oct-22 23:30N 42°21' W 071°03'0 0.0
2017-Oct-22 23:00N 42°21' W 071°03'0 0.0
2017-Oct-22 22:31N 42°21' W 071°03'0 0.0
2017-Oct-22 22:01N 42°21' W 071°03'0 0.0
2017-Oct-22 21:28N 42°21' W 071°03'0 0.0
2017-Oct-22 21:01N 42°21' W 071°03'0 0.0
2017-Oct-22 20:30N 42°21' W 071°03'0 0.0
2017-Oct-22 20:00N 42°21' W 071°03'0 0.0
2017-Oct-22 19:27N 42°21' W 071°03'0 0.0
2017-Oct-22 19:00N 42°21' W 071°03'2 4.7
2017-Oct-22 18:29N 42°20' W 071°00'1 2.5
2017-Oct-22 18:01N 42°21' W 071°01'2 4.1
2017-Oct-22 17:31N 42°22' W 071°03'1 1.8
2017-Oct-22 17:00N 42°21' W 071°03'0 0.1
2017-Oct-22 16:26N 42°21' W 071°03'0 0.0
2017-Oct-22 15:57N 42°21' W 071°03'0 0.0
2017-Oct-22 15:15N 42°21' W 071°03'0 0.0
2017-Oct-22 15:00N 42°21' W 071°03'0 0.0
2017-Oct-22 14:27N 42°21' W 071°03'0 0.0
2017-Oct-22 13:48N 42°21' W 071°03'0 0.0
2017-Oct-22 13:30N 42°21' W 071°03'0 0.0
2017-Oct-22 13:01N 42°21' W 071°03'0 0.0
2017-Oct-22 12:30N 42°21' W 071°03'0 0.0
2017-Oct-22 12:00N 42°21' W 071°03'0 0.0
2017-Oct-22 11:31N 42°21' W 071°03'0 0.0
2017-Oct-22 11:00N 42°21' W 071°03'0 0.0
2017-Oct-22 10:31N 42°21' W 071°03'0 0.0
2017-Oct-22 10:00N 42°21' W 071°03'0 0.0
2017-Oct-22 09:31N 42°21' W 071°03'0 0.0
2017-Oct-22 09:00N 42°21' W 071°03'0 0.0
2017-Oct-22 08:30N 42°21' W 071°03'0 0.0
2017-Oct-22 08:01N 42°21' W 071°03'0 0.0
2017-Oct-22 07:30N 42°21' W 071°03'0 0.0
2017-Oct-22 07:00N 42°21' W 071°03'0 0.0
2017-Oct-22 06:30N 42°21' W 071°03'0 0.0
2017-Oct-22 06:00N 42°21' W 071°03'0 0.0
2017-Oct-22 05:30N 42°21' W 071°03'0 0.0
2017-Oct-22 05:00N 42°21' W 071°03'0 0.0
2017-Oct-22 04:30N 42°21' W 071°03'0 0.0
2017-Oct-22 04:00N 42°21' W 071°03'0 0.0
2017-Oct-22 03:30N 42°21' W 071°03'0 0.0
2017-Oct-22 03:00N 42°21' W 071°03'1 2.7
2017-Oct-22 02:30N 42°21' W 071°01'1 1.9
2017-Oct-22 02:00N 42°20' W 071°00'2 3.7
2017-Oct-22 01:30N 42°21' W 071°02'1 2.4
2017-Oct-22 01:00N 42°22' W 071°03'1 1.1
2017-Oct-22 00:30N 42°23' W 071°03'2 3.4
2017-Oct-22 00:01N 42°21' W 071°03'0 0.0
2017-Oct-21 23:30N 42°21' W 071°03'0 0.0
2017-Oct-21 23:01N 42°21' W 071°03'0 0.0
2017-Oct-21 22:30N 42°21' W 071°03'0 0.2
2017-Oct-21 22:01N 42°21' W 071°03'0 0.2
2017-Oct-21 21:30N 42°21' W 071°03'0 0.1
2017-Oct-21 21:00N 42°21' W 071°03'0 0.1
2017-Oct-21 20:31N 42°21' W 071°03'0 0.0
2017-Oct-21 20:00N 42°21' W 071°03'0 0.0
2017-Oct-21 19:30N 42°21' W 071°03'0 0.0
2017-Oct-21 18:43N 42°21' W 071°03'0 0.0
2017-Oct-21 18:26N 42°21' W 071°03'0 0.0
2017-Oct-21 18:00N 42°21' W 071°03'0 0.0
2017-Oct-21 17:28N 42°21' W 071°03'0 0.0
2017-Oct-21 15:49N 42°21' W 071°03'0 0.0
2017-Oct-21 15:13N 42°21' W 071°03'0 0.0
2017-Oct-21 14:54N 42°21' W 071°03'0 0.0
2017-Oct-21 14:29N 42°21' W 071°03'0 0.0
2017-Oct-21 13:30N 42°21' W 071°03'0 0.2
2017-Oct-21 13:00N 42°21' W 071°03'0 0.2
2017-Oct-21 12:31N 42°21' W 071°03'0 0.0
2017-Oct-21 12:00N 42°21' W 071°03'0 0.0
2017-Oct-21 11:30N 42°21' W 071°03'0 0.0
2017-Oct-21 11:00N 42°21' W 071°03'0 0.0
2017-Oct-21 10:31N 42°21' W 071°03'0 0.0
2017-Oct-21 10:01N 42°21' W 071°03'0 0.0
2017-Oct-21 09:30N 42°21' W 071°03'0 0.0
2017-Oct-21 09:00N 42°21' W 071°03'0 0.0
2017-Oct-21 08:30N 42°21' W 071°03'0 0.0
2017-Oct-21 07:59N 42°21' W 071°03'0 0.0
2017-Oct-21 07:15N 42°21' W 071°03'0 0.0
2017-Oct-21 06:59N 42°21' W 071°03'0 0.0
2017-Oct-21 06:30N 42°21' W 071°03'0 0.0
2017-Oct-21 05:57N 42°21' W 071°03'0 0.0
2017-Oct-21 05:29N 42°21' W 071°03'0 0.0
2017-Oct-21 05:00N 42°21' W 071°03'0 0.0
2017-Oct-21 04:29N 42°21' W 071°03'0 0.0
2017-Oct-21 04:01N 42°21' W 071°03'0 0.0
2017-Oct-21 03:30N 42°21' W 071°03'0 0.0
2017-Oct-21 02:56N 42°21' W 071°03'0 0.0
2017-Oct-21 02:30N 42°21' W 071°03'0 0.0
2017-Oct-21 02:00N 42°21' W 071°03'0 0.0
2017-Oct-21 01:31N 42°21' W 071°03'0 0.0
2017-Oct-21 00:59N 42°21' W 071°03'0 0.0
2017-Oct-21 00:30N 42°21' W 071°03'0 0.0
2017-Oct-21 00:00N 42°21' W 071°03'0 0.0
2017-Oct-20 23:31N 42°21' W 071°03'0 0.0
2017-Oct-20 23:00N 42°21' W 071°03'0 0.0
2017-Oct-20 22:30N 42°21' W 071°03'0 0.0
2017-Oct-20 22:00N 42°21' W 071°03'0 0.0
2017-Oct-20 21:31N 42°21' W 071°03'0 0.2
2017-Oct-20 21:00N 42°21' W 071°03'0 0.2
2017-Oct-20 20:30N 42°21' W 071°03'0 0.3
2017-Oct-20 20:00N 42°21' W 071°03'0 0.2
2017-Oct-20 19:29N 42°21' W 071°03'0 0.0
2017-Oct-20 13:47N 42°21' W 071°03'0 0.0
2017-Oct-20 13:27N 42°21' W 071°03'0 0.3
2017-Oct-20 13:01N 42°21' W 071°03'0 0.2
2017-Oct-20 12:31N 42°21' W 071°03'0 0.0
2017-Oct-20 12:00N 42°21' W 071°03'0 0.0
2017-Oct-20 11:30N 42°21' W 071°03'0 0.0
2017-Oct-20 11:00N 42°21' W 071°03'0 0.0
2017-Oct-20 10:30N 42°21' W 071°03'0 0.0
2017-Oct-20 10:01N 42°21' W 071°03'0 0.2
2017-Oct-20 09:30N 42°21' W 071°03'0 0.2
2017-Oct-20 09:01N 42°21' W 071°03'0 0.0
2017-Oct-20 08:30N 42°21' W 071°03'0 0.0
2017-Oct-20 08:00N 42°21' W 071°03'0 0.0
2017-Oct-20 07:31N 42°21' W 071°03'0 0.0
2017-Oct-20 07:00N 42°21' W 071°03'0 0.0
2017-Oct-20 06:30N 42°21' W 071°03'0 0.0
2017-Oct-20 06:01N 42°21' W 071°03'0 0.0
2017-Oct-20 05:30N 42°21' W 071°03'0 0.0
2017-Oct-20 05:00N 42°21' W 071°03'0 0.0
2017-Oct-20 04:30N 42°21' W 071°03'0 0.0
2017-Oct-20 04:00N 42°21' W 071°03'0 0.0
2017-Oct-20 03:30N 42°21' W 071°03'0 0.0
2017-Oct-20 03:01N 42°21' W 071°03'0 0.0
2017-Oct-20 02:31N 42°21' W 071°03'0 0.0
2017-Oct-20 02:01N 42°21' W 071°03'0 0.0
2017-Oct-20 01:30N 42°21' W 071°03'0 0.0
2017-Oct-20 01:00N 42°21' W 071°03'0 0.0
2017-Oct-20 00:31N 42°21' W 071°03'0 0.0
2017-Oct-20 00:01N 42°21' W 071°03'0 0.0
2017-Oct-19 23:31N 42°21' W 071°03'0 0.0
2017-Oct-19 23:00N 42°21' W 071°03'0 0.0
2017-Oct-19 22:31N 42°21' W 071°03'0 0.0
2017-Oct-19 22:00N 42°21' W 071°03'0 0.0
2017-Oct-19 21:30N 42°21' W 071°03'0 0.2
2017-Oct-19 21:01N 42°21' W 071°03'0 0.2
2017-Oct-19 20:30N 42°21' W 071°03'0 0.3
2017-Oct-19 20:01N 42°21' W 071°03'0 0.3
2017-Oct-19 19:30N 42°21' W 071°03'0 0.0
2017-Oct-19 19:00N 42°21' W 071°03'0 0.0
2017-Oct-19 18:31N 42°21' W 071°03'0 0.0
2017-Oct-19 18:01N 42°21' W 071°03'0 0.2
2017-Oct-19 17:30N 42°21' W 071°03'0 0.2
2017-Oct-19 17:01N 42°21' W 071°03'0 0.0
2017-Oct-19 16:30N 42°21' W 071°03'0 0.0
2017-Oct-19 16:00N 42°21' W 071°03'0 0.0
2017-Oct-19 15:30N 42°21' W 071°03'0 0.0
2017-Oct-19 15:00N 42°21' W 071°03'0 0.0
2017-Oct-19 14:30N 42°21' W 071°03'0 0.0
2017-Oct-19 14:00N 42°21' W 071°03'0 0.0
2017-Oct-19 13:31N 42°21' W 071°03'0 0.0
2017-Oct-19 13:00N 42°21' W 071°03'0 0.0
2017-Oct-19 12:31N 42°21' W 071°03'0 0.0
2017-Oct-19 12:01N 42°21' W 071°03'0 0.0
2017-Oct-19 11:31N 42°21' W 071°03'0 0.0
2017-Oct-19 11:00N 42°21' W 071°03'0 0.0
2017-Oct-19 10:31N 42°21' W 071°03'0 0.0
2017-Oct-19 10:00N 42°21' W 071°03'0 0.2
2017-Oct-19 09:30N 42°21' W 071°03'0 0.2
2017-Oct-19 09:01N 42°21' W 071°03'0 0.0
2017-Oct-19 08:30N 42°21' W 071°03'0 0.0
2017-Oct-19 08:00N 42°21' W 071°03'0 0.0
2017-Oct-19 07:30N 42°21' W 071°03'0 0.0
2017-Oct-19 07:00N 42°21' W 071°03'0 0.3
2017-Oct-19 06:30N 42°21' W 071°03'0 0.3
2017-Oct-19 06:01N 42°21' W 071°03'0 0.2
2017-Oct-19 05:30N 42°21' W 071°03'0 0.2
2017-Oct-19 05:00N 42°21' W 071°03'0 0.0
2017-Oct-19 04:30N 42°21' W 071°03'0 0.0
2017-Oct-19 04:00N 42°21' W 071°03'0 0.0
2017-Oct-19 03:30N 42°21' W 071°03'0 0.0
2017-Oct-19 03:00N 42°21' W 071°03'0 0.0
2017-Oct-19 02:30N 42°21' W 071°03'0 0.0
2017-Oct-19 02:00N 42°21' W 071°03'1 1.6
2017-Oct-19 01:30N 42°21' W 071°02'1 2.2
2017-Oct-19 01:01N 42°21' W 071°01'2 3.5
2017-Oct-19 00:31N 42°22' W 071°03'1 2.4
2017-Oct-19 00:01N 42°23' W 071°03'0 0.9
2017-Oct-18 23:31N 42°22' W 071°03'1 2.2
2017-Oct-18 23:00N 42°21' W 071°03'0 0.0
2017-Oct-18 22:30N 42°21' W 071°03'0 0.0
2017-Oct-18 22:00N 42°21' W 071°03'0 0.0
2017-Oct-18 21:30N 42°21' W 071°03'0 0.2
2017-Oct-18 21:00N 42°21' W 071°03'0 0.2
2017-Oct-18 20:30N 42°21' W 071°03'0 0.0
2017-Oct-18 20:00N 42°21' W 071°03'0 0.0
2017-Oct-18 19:30N 42°21' W 071°03'0 0.0
2017-Oct-18 19:00N 42°21' W 071°03'0 0.0
2017-Oct-18 18:30N 42°21' W 071°03'0 0.0
2017-Oct-18 18:00N 42°21' W 071°03'0 0.0
2017-Oct-18 17:31N 42°21' W 071°03'0 0.0
2017-Oct-18 17:00N 42°21' W 071°03'0 0.0
2017-Oct-18 16:31N 42°21' W 071°03'0 0.0
2017-Oct-18 16:00N 42°21' W 071°03'0 0.0
2017-Oct-18 15:30N 42°21' W 071°03'0 0.0
2017-Oct-18 15:00N 42°21' W 071°03'0 0.0
2017-Oct-18 14:00N 42°21' W 071°03'0 0.0
2017-Oct-18 13:30N 42°21' W 071°03'0 0.2
2017-Oct-18 13:00N 42°21' W 071°03'0 0.2
2017-Oct-18 12:30N 42°21' W 071°03'0 0.0
2017-Oct-18 12:01N 42°21' W 071°03'0 0.0
2017-Oct-18 11:31N 42°21' W 071°03'0 0.0
2017-Oct-18 11:00N 42°21' W 071°03'0 0.0
2017-Oct-18 10:31N 42°21' W 071°03'0 0.0
2017-Oct-18 10:01N 42°21' W 071°03'0 0.0
2017-Oct-18 09:30N 42°21' W 071°03'0 0.0
2017-Oct-18 09:00N 42°21' W 071°03'0 0.0
2017-Oct-18 08:31N 42°21' W 071°03'0 0.0
2017-Oct-18 08:01N 42°21' W 071°03'0 0.0
2017-Oct-18 07:30N 42°21' W 071°03'0 0.0
2017-Oct-18 07:01N 42°21' W 071°03'0 0.0
2017-Oct-18 06:30N 42°21' W 071°03'0 0.0
2017-Oct-18 06:00N 42°21' W 071°03'0 0.0
2017-Oct-18 05:30N 42°21' W 071°03'0 0.0
2017-Oct-18 05:00N 42°21' W 071°03'0 0.0
2017-Oct-18 04:30N 42°21' W 071°03'0 0.0
2017-Oct-18 04:00N 42°21' W 071°03'0 0.0
2017-Oct-18 03:31N 42°21' W 071°03'0 0.0
2017-Oct-18 03:00N 42°21' W 071°03'0 0.0
2017-Oct-18 02:30N 42°21' W 071°03'0 0.0
2017-Oct-18 02:01N 42°21' W 071°03'0 0.1
2017-Oct-18 01:30N 42°21' W 071°03'0 0.1
2017-Oct-18 01:01N 42°21' W 071°03'0 0.0
2017-Oct-18 00:30N 42°21' W 071°03'0 0.0
2017-Oct-18 00:00N 42°21' W 071°03'0 0.0
2017-Oct-17 23:30N 42°21' W 071°03'0 0.0
2017-Oct-17 23:00N 42°21' W 071°03'0 0.2
2017-Oct-17 22:31N 42°21' W 071°03'0 0.4
2017-Oct-17 22:00N 42°21' W 071°03'1 1.2
2017-Oct-17 21:30N 42°22' W 071°03'0 0.6
2017-Oct-17 21:01N 42°22' W 071°03'1 1.8
2017-Oct-17 20:31N 42°21' W 071°03'0 0.1
2017-Oct-17 20:01N 42°21' W 071°03'0 0.2
2017-Oct-17 19:30N 42°21' W 071°03'0 0.4
2017-Oct-17 19:01N 42°21' W 071°03'0 0.0
2017-Oct-17 18:31N 42°21' W 071°03'0 0.0
2017-Oct-17 18:00N 42°21' W 071°03'0 0.0
2017-Oct-17 17:31N 42°21' W 071°03'0 0.0
2017-Oct-17 17:00N 42°21' W 071°03'0 0.0
2017-Oct-17 16:30N 42°21' W 071°03'0 0.0
2017-Oct-17 16:00N 42°21' W 071°03'0 0.0
2017-Oct-17 15:30N 42°21' W 071°03'0 0.0
2017-Oct-17 15:00N 42°21' W 071°03'0 0.0
2017-Oct-17 14:30N 42°21' W 071°03'0 0.0
2017-Oct-17 14:00N 42°21' W 071°03'0 0.0
2017-Oct-17 13:30N 42°21' W 071°03'0 0.0
2017-Oct-17 13:00N 42°21' W 071°03'0 0.0
2017-Oct-17 12:30N 42°21' W 071°03'0 0.0
2017-Oct-17 12:00N 42°21' W 071°03'0 0.0
2017-Oct-17 11:31N 42°21' W 071°03'0 0.0
2017-Oct-17 11:01N 42°21' W 071°03'0 0.0
2017-Oct-17 10:30N 42°21' W 071°03'0 0.0
2017-Oct-17 10:01N 42°21' W 071°03'0 0.0
2017-Oct-17 09:31N 42°21' W 071°03'0 0.0
2017-Oct-17 09:00N 42°21' W 071°03'0 0.0
2017-Oct-17 08:30N 42°21' W 071°03'0 0.0
2017-Oct-17 08:00N 42°21' W 071°03'0 0.0
2017-Oct-17 07:31N 42°21' W 071°03'0 0.0
2017-Oct-17 07:00N 42°21' W 071°03'0 0.0
2017-Oct-17 06:30N 42°21' W 071°03'0 0.0
2017-Oct-17 06:00N 42°21' W 071°03'0 0.2
2017-Oct-17 05:30N 42°21' W 071°03'0 0.2
2017-Oct-17 05:01N 42°21' W 071°03'0 0.0
2017-Oct-17 04:30N 42°21' W 071°03'0 0.0
2017-Oct-17 04:00N 42°21' W 071°03'0 0.0
2017-Oct-17 03:30N 42°21' W 071°03'0 0.0
2017-Oct-17 03:01N 42°21' W 071°03'0 0.0
2017-Oct-17 02:30N 42°21' W 071°03'0 0.0
2017-Oct-17 02:00N 42°21' W 071°03'0 0.2
2017-Oct-17 01:30N 42°21' W 071°03'0 0.2
2017-Oct-17 01:00N 42°21' W 071°03'0 0.0
2017-Oct-17 00:31N 42°21' W 071°03'0 0.0
2017-Oct-17 00:00N 42°21' W 071°03'0 0.0
2017-Oct-16 23:31N 42°21' W 071°03'0 0.0
2017-Oct-16 23:00N 42°21' W 071°03'0 0.0
2017-Oct-16 22:30N 42°21' W 071°03'0 0.0
2017-Oct-16 22:01N 42°21' W 071°03'0 0.2
2017-Oct-16 21:31N 42°21' W 071°03'1 1.7
2017-Oct-16 21:00N 42°22' W 071°03'1 1.5
2017-Oct-16 20:30N 42°22' W 071°03'0 0.5
2017-Oct-16 20:00N 42°21' W 071°03'0 0.3
2017-Oct-16 19:30N 42°21' W 071°03'0 0.0
2017-Oct-16 19:00N 42°21' W 071°03'0 0.0
2017-Oct-16 18:30N 42°21' W 071°03'0 0.0
2017-Oct-16 18:00N 42°21' W 071°03'0 0.0
2017-Oct-16 17:31N 42°21' W 071°03'0 0.0
2017-Oct-16 17:00N 42°21' W 071°03'0 0.0
2017-Oct-16 16:30N 42°21' W 071°03'0 0.0
2017-Oct-16 16:00N 42°21' W 071°03'0 0.0
2017-Oct-16 15:30N 42°21' W 071°03'0 0.0
2017-Oct-16 15:00N 42°21' W 071°03'0 0.0
2017-Oct-16 14:00N 42°21' W 071°03'0 0.0
2017-Oct-16 13:30N 42°21' W 071°03'0 0.0
2017-Oct-16 13:00N 42°21' W 071°03'0 0.0
2017-Oct-16 12:30N 42°21' W 071°03'0 0.0
2017-Oct-16 12:01N 42°21' W 071°03'0 0.0
2017-Oct-16 11:30N 42°21' W 071°03'0 0.0
2017-Oct-16 11:01N 42°21' W 071°03'0 0.0
2017-Oct-16 10:30N 42°21' W 071°03'0 0.2
2017-Oct-16 10:00N 42°21' W 071°03'0 0.2
2017-Oct-16 09:30N 42°21' W 071°03'0 0.0
2017-Oct-16 09:00N 42°21' W 071°03'0 0.0
2017-Oct-16 08:30N 42°21' W 071°03'0 0.0
2017-Oct-16 08:01N 42°21' W 071°03'0 0.0
2017-Oct-16 07:30N 42°21' W 071°03'0 0.0
2017-Oct-16 07:00N 42°21' W 071°03'0 0.0
2017-Oct-16 06:30N 42°21' W 071°03'0 0.0
2017-Oct-16 06:00N 42°21' W 071°03'0 0.2
2017-Oct-16 05:30N 42°21' W 071°03'0 0.2
2017-Oct-16 05:01N 42°21' W 071°03'0 0.0
2017-Oct-16 04:30N 42°21' W 071°03'0 0.0
2017-Oct-16 04:00N 42°21' W 071°03'0 0.0
2017-Oct-16 03:30N 42°21' W 071°03'0 0.0
2017-Oct-16 03:00N 42°21' W 071°03'0 0.0
2017-Oct-16 02:31N 42°21' W 071°03'0 0.0
2017-Oct-16 02:00N 42°21' W 071°03'0 0.2
2017-Oct-16 01:30N 42°21' W 071°03'0 0.2
2017-Oct-16 01:00N 42°21' W 071°03'0 0.0
2017-Oct-16 00:31N 42°21' W 071°03'0 0.0
2017-Oct-16 00:00N 42°21' W 071°03'0 0.0
2017-Oct-15 23:31N 42°21' W 071°03'0 0.0
2017-Oct-15 23:00N 42°21' W 071°03'0 0.0
2017-Oct-15 22:31N 42°21' W 071°03'0 0.0
2017-Oct-15 22:00N 42°21' W 071°03'0 0.0
2017-Oct-15 21:31N 42°21' W 071°03'0 0.0
2017-Oct-15 21:00N 42°21' W 071°03'0 0.0
2017-Oct-15 20:30N 42°21' W 071°03'0 0.0
2017-Oct-15 20:01N 42°21' W 071°03'0 0.0
2017-Oct-15 19:31N 42°21' W 071°03'0 0.0
2017-Oct-15 19:01N 42°21' W 071°03'0 0.0
2017-Oct-15 18:30N 42°21' W 071°03'0 0.0
2017-Oct-15 18:00N 42°21' W 071°03'0 0.1
2017-Oct-15 17:30N 42°21' W 071°03'0 0.1
2017-Oct-15 17:00N 42°21' W 071°03'0 0.0
2017-Oct-15 16:30N 42°21' W 071°03'0 0.0
2017-Oct-15 16:00N 42°21' W 071°03'0 0.0
2017-Oct-15 15:30N 42°21' W 071°03'0 0.0
2017-Oct-15 15:00N 42°21' W 071°03'0 0.0
2017-Oct-15 14:01N 42°21' W 071°03'0 0.0
2017-Oct-15 13:30N 42°21' W 071°03'0 0.0
2017-Oct-15 13:01N 42°21' W 071°03'0 0.0
2017-Oct-15 12:30N 42°21' W 071°03'0 0.0
2017-Oct-15 12:00N 42°21' W 071°03'0 0.0
2017-Oct-15 11:30N 42°21' W 071°03'0 0.0
2017-Oct-15 11:00N 42°21' W 071°03'0 0.0
2017-Oct-15 10:30N 42°21' W 071°03'0 0.0
2017-Oct-15 10:01N 42°21' W 071°03'0 0.0
2017-Oct-15 09:30N 42°21' W 071°03'0 0.0
2017-Oct-15 09:00N 42°21' W 071°03'0 0.0
2017-Oct-15 08:30N 42°21' W 071°03'0 0.0
2017-Oct-15 08:00N 42°21' W 071°03'0 0.0
2017-Oct-15 07:30N 42°21' W 071°03'0 0.0
2017-Oct-15 07:01N 42°21' W 071°03'0 0.0
2017-Oct-15 06:30N 42°21' W 071°03'0 0.0
2017-Oct-15 06:01N 42°21' W 071°03'0 0.2
2017-Oct-15 05:30N 42°21' W 071°03'0 0.2
2017-Oct-15 05:00N 42°21' W 071°03'0 0.0
2017-Oct-15 04:30N 42°21' W 071°03'0 0.0
2017-Oct-15 04:00N 42°21' W 071°03'0 0.0
2017-Oct-15 03:30N 42°21' W 071°03'0 0.0
2017-Oct-15 03:01N 42°21' W 071°03'0 0.0
2017-Oct-15 02:30N 42°21' W 071°03'0 0.0
2017-Oct-15 02:00N 42°21' W 071°03'1 2.2
2017-Oct-15 01:30N 42°21' W 071°02'2 3.6
2017-Oct-15 01:00N 42°20' W 070°60'1 2.6
2017-Oct-15 00:30N 42°21' W 071°01'2 4.0
2017-Oct-15 00:01N 42°22' W 071°03'1 1.2
2017-Oct-14 23:31N 42°23' W 071°03'1 2.7
2017-Oct-14 23:00N 42°21' W 071°03'0 0.0
2017-Oct-14 22:30N 42°21' W 071°03'0 0.0
2017-Oct-14 22:00N 42°21' W 071°03'0 0.1
2017-Oct-14 21:30N 42°21' W 071°03'0 0.1
2017-Oct-14 21:00N 42°21' W 071°03'0 0.0
2017-Oct-14 20:31N 42°21' W 071°03'0 0.0
2017-Oct-14 20:01N 42°21' W 071°03'1 1.1
2017-Oct-14 19:31N 42°22' W 071°03'2 4.0
2017-Oct-14 19:00N 42°20' W 071°00'0 0.7
2017-Oct-14 18:30N 42°21' W 071°01'2 3.3
2017-Oct-14 18:00N 42°21' W 071°03'0 0.0
2017-Oct-14 17:30N 42°21' W 071°03'0 0.0
2017-Oct-14 17:00N 42°21' W 071°03'0 0.0
2017-Oct-14 16:30N 42°21' W 071°03'0 0.0
2017-Oct-14 16:00N 42°21' W 071°03'0 0.0
2017-Oct-14 15:30N 42°21' W 071°03'0 0.0
2017-Oct-14 15:01N 42°21' W 071°03'0 0.0
2017-Oct-14 14:30N 42°21' W 071°03'0 0.0
2017-Oct-14 14:00N 42°21' W 071°03'0 0.0
2017-Oct-14 13:30N 42°21' W 071°03'0 0.0
2017-Oct-14 13:00N 42°21' W 071°03'0 0.0
2017-Oct-14 12:30N 42°21' W 071°03'0 0.0
2017-Oct-14 12:00N 42°21' W 071°03'0 0.0
2017-Oct-14 11:30N 42°21' W 071°03'0 0.0
2017-Oct-14 11:00N 42°21' W 071°03'0 0.0
2017-Oct-14 10:30N 42°21' W 071°03'0 0.0
2017-Oct-14 10:00N 42°21' W 071°03'0 0.0
2017-Oct-14 09:30N 42°21' W 071°03'0 0.0
2017-Oct-14 09:01N 42°21' W 071°03'0 0.0
2017-Oct-14 08:30N 42°21' W 071°03'0 0.0
2017-Oct-14 08:01N 42°21' W 071°03'0 0.0
2017-Oct-14 07:30N 42°21' W 071°03'0 0.0
2017-Oct-14 07:00N 42°21' W 071°03'0 0.0
2017-Oct-14 06:30N 42°21' W 071°03'0 0.0
2017-Oct-14 06:00N 42°21' W 071°03'0 0.0
2017-Oct-14 05:31N 42°21' W 071°03'0 0.0
2017-Oct-14 05:00N 42°21' W 071°03'0 0.0
2017-Oct-14 04:30N 42°21' W 071°03'0 0.0
2017-Oct-14 04:00N 42°21' W 071°03'0 0.0
2017-Oct-14 03:30N 42°21' W 071°03'0 0.0
2017-Oct-14 03:00N 42°21' W 071°03'0 0.0
2017-Oct-14 02:30N 42°21' W 071°03'0 0.0
2017-Oct-14 02:01N 42°21' W 071°03'2 2.9
2017-Oct-14 01:28N 42°23' W 071°03'2 3.4
2017-Oct-14 00:58N 42°21' W 071°02'2 3.7
2017-Oct-14 00:28N 42°20' W 070°60'1 3.2
2017-Oct-14 00:00N 42°21' W 071°01'2 3.6
2017-Oct-13 23:30N 42°22' W 071°03'1 1.8
2017-Oct-13 23:00N 42°21' W 071°03'0 0.0
2017-Oct-13 22:30N 42°21' W 071°03'0 0.0
2017-Oct-13 22:00N 42°21' W 071°03'0 0.2
2017-Oct-13 21:30N 42°21' W 071°03'0 0.2
2017-Oct-13 21:00N 42°21' W 071°03'0 0.2
2017-Oct-13 20:30N 42°21' W 071°03'0 0.3
2017-Oct-13 20:01N 42°21' W 071°03'0 0.0
2017-Oct-13 19:30N 42°21' W 071°03'0 0.0
2017-Oct-13 19:00N 42°21' W 071°03'0 0.0
2017-Oct-13 18:31N 42°21' W 071°03'0 0.0
2017-Oct-13 18:01N 42°21' W 071°03'0 0.0
2017-Oct-13 17:30N 42°21' W 071°03'0 0.0
2017-Oct-13 17:00N 42°21' W 071°03'0 0.0
2017-Oct-13 16:30N 42°21' W 071°03'0 0.0
2017-Oct-13 16:01N 42°21' W 071°03'0 0.0
2017-Oct-13 15:30N 42°21' W 071°03'0 0.0
2017-Oct-13 15:00N 42°21' W 071°03'0 0.0
2017-Oct-13 14:30N 42°21' W 071°03'0 0.0
2017-Oct-13 14:00N 42°21' W 071°03'0 0.2
2017-Oct-13 13:30N 42°21' W 071°03'0 0.2
2017-Oct-13 13:00N 42°21' W 071°03'0 0.0
2017-Oct-13 12:31N 42°21' W 071°03'0 0.0
2017-Oct-13 12:01N 42°21' W 071°03'0 0.0
2017-Oct-13 11:31N 42°21' W 071°03'0 0.0
2017-Oct-13 11:01N 42°21' W 071°03'0 0.0
2017-Oct-13 10:30N 42°21' W 071°03'0 0.0
2017-Oct-13 10:01N 42°21' W 071°03'0 0.0
2017-Oct-13 09:30N 42°21' W 071°03'0 0.0
2017-Oct-13 09:00N 42°21' W 071°03'0 0.0
2017-Oct-13 08:30N 42°21' W 071°03'0 0.0
2017-Oct-13 08:00N 42°21' W 071°03'0 0.0
2017-Oct-13 07:30N 42°21' W 071°03'0 0.3
2017-Oct-13 07:00N 42°21' W 071°03'0 0.3
2017-Oct-13 06:30N 42°21' W 071°03'0 0.0
2017-Oct-13 06:00N 42°21' W 071°03'0 0.0
2017-Oct-13 05:30N 42°21' W 071°03'0 0.0
2017-Oct-13 05:00N 42°21' W 071°03'0 0.0
2017-Oct-13 04:30N 42°21' W 071°03'0 0.0
2017-Oct-13 04:00N 42°21' W 071°03'0 0.0
2017-Oct-13 03:30N 42°21' W 071°03'0 0.0
2017-Oct-13 03:00N 42°21' W 071°03'0 0.0
2017-Oct-13 02:30N 42°21' W 071°03'0 0.0
2017-Oct-13 02:01N 42°21' W 071°03'0 0.0
2017-Oct-13 01:31N 42°21' W 071°03'0 0.0
2017-Oct-13 01:00N 42°21' W 071°03'0 0.0
2017-Oct-13 00:31N 42°21' W 071°03'  

Dump ship's entire track history